sensor_id;sensor_type;location;lat;lon;timestamp;P1;durP1;ratioP1;P2;durP2;ratioP2
2175;SDS011;1094;49.902;10.876;2023-03-17T00:00:07;33.87;;;30.57;;
2175;SDS011;1094;49.902;10.876;2023-03-17T00:02:34;32.75;;;29.90;;
2175;SDS011;1094;49.902;10.876;2023-03-17T00:05:00;32.40;;;29.17;;
2175;SDS011;1094;49.902;10.876;2023-03-17T00:07:26;32.72;;;29.73;;
2175;SDS011;1094;49.902;10.876;2023-03-17T00:09:52;31.52;;;28.75;;
2175;SDS011;1094;49.902;10.876;2023-03-17T00:12:18;32.10;;;29.13;;
2175;SDS011;1094;49.902;10.876;2023-03-17T00:14:44;33.15;;;30.02;;
2175;SDS011;1094;49.902;10.876;2023-03-17T00:17:12;34.58;;;31.55;;
2175;SDS011;1094;49.902;10.876;2023-03-17T00:19:38;33.80;;;30.48;;
2175;SDS011;1094;49.902;10.876;2023-03-17T00:22:05;31.75;;;29.05;;
2175;SDS011;1094;49.902;10.876;2023-03-17T00:24:32;32.65;;;29.45;;
2175;SDS011;1094;49.902;10.876;2023-03-17T00:26:58;34.97;;;31.73;;
2175;SDS011;1094;49.902;10.876;2023-03-17T00:29:23;33.45;;;30.23;;
2175;SDS011;1094;49.902;10.876;2023-03-17T00:31:50;32.58;;;29.63;;
2175;SDS011;1094;49.902;10.876;2023-03-17T00:34:17;36.33;;;32.83;;
2175;SDS011;1094;49.902;10.876;2023-03-17T00:36:47;32.63;;;29.25;;
2175;SDS011;1094;49.902;10.876;2023-03-17T00:39:14;33.65;;;30.23;;
2175;SDS011;1094;49.902;10.876;2023-03-17T00:41:40;33.78;;;30.08;;
2175;SDS011;1094;49.902;10.876;2023-03-17T00:44:07;34.42;;;31.33;;
2175;SDS011;1094;49.902;10.876;2023-03-17T00:46:33;32.15;;;29.00;;
2175;SDS011;1094;49.902;10.876;2023-03-17T00:49:03;32.10;;;29.25;;
2175;SDS011;1094;49.902;10.876;2023-03-17T00:51:29;30.85;;;28.27;;
2175;SDS011;1094;49.902;10.876;2023-03-17T00:53:55;31.38;;;28.67;;
2175;SDS011;1094;49.902;10.876;2023-03-17T00:56:21;30.05;;;26.98;;
2175;SDS011;1094;49.902;10.876;2023-03-17T00:58:47;30.60;;;27.77;;
2175;SDS011;1094;49.902;10.876;2023-03-17T01:01:13;31.20;;;27.92;;
2175;SDS011;1094;49.902;10.876;2023-03-17T01:03:39;29.20;;;26.40;;
2175;SDS011;1094;49.902;10.876;2023-03-17T01:06:07;30.00;;;27.47;;
2175;SDS011;1094;49.902;10.876;2023-03-17T01:08:34;29.10;;;26.77;;
2175;SDS011;1094;49.902;10.876;2023-03-17T01:11:01;30.08;;;27.38;;
2175;SDS011;1094;49.902;10.876;2023-03-17T01:13:27;31.08;;;28.48;;
2175;SDS011;1094;49.902;10.876;2023-03-17T01:15:53;30.05;;;27.48;;
2175;SDS011;1094;49.902;10.876;2023-03-17T01:18:21;29.75;;;27.02;;
2175;SDS011;1094;49.902;10.876;2023-03-17T01:20:47;32.78;;;29.85;;
2175;SDS011;1094;49.902;10.876;2023-03-17T01:23:13;31.77;;;28.73;;
2175;SDS011;1094;49.902;10.876;2023-03-17T01:25:40;31.55;;;28.83;;
2175;SDS011;1094;49.902;10.876;2023-03-17T01:28:07;33.60;;;30.25;;
2175;SDS011;1094;49.902;10.876;2023-03-17T01:30:35;31.95;;;28.95;;
2175;SDS011;1094;49.902;10.876;2023-03-17T01:33:02;34.13;;;30.80;;
2175;SDS011;1094;49.902;10.876;2023-03-17T01:35:28;32.88;;;29.65;;
2175;SDS011;1094;49.902;10.876;2023-03-17T01:37:55;32.15;;;29.02;;
2175;SDS011;1094;49.902;10.876;2023-03-17T01:40:22;33.37;;;29.90;;
2175;SDS011;1094;49.902;10.876;2023-03-17T01:42:53;33.92;;;30.63;;
2175;SDS011;1094;49.902;10.876;2023-03-17T01:48:03;32.08;;;29.35;;
2175;SDS011;1094;49.902;10.876;2023-03-17T01:50:30;32.15;;;28.70;;
2175;SDS011;1094;49.902;10.876;2023-03-17T01:52:56;32.63;;;29.55;;
2175;SDS011;1094;49.902;10.876;2023-03-17T01:55:22;32.25;;;29.25;;
2175;SDS011;1094;49.902;10.876;2023-03-17T01:57:48;30.03;;;27.50;;
2175;SDS011;1094;49.902;10.876;2023-03-17T02:00:21;30.02;;;27.85;;
2175;SDS011;1094;49.902;10.876;2023-03-17T02:02:49;31.08;;;28.35;;
2175;SDS011;1094;49.902;10.876;2023-03-17T02:05:17;30.58;;;27.85;;
2175;SDS011;1094;49.902;10.876;2023-03-17T02:07:43;30.27;;;27.63;;
2175;SDS011;1094;49.902;10.876;2023-03-17T02:10:10;29.88;;;27.48;;
2175;SDS011;1094;49.902;10.876;2023-03-17T02:12:36;32.10;;;29.33;;
2175;SDS011;1094;49.902;10.876;2023-03-17T02:15:04;29.63;;;26.92;;
2175;SDS011;1094;49.902;10.876;2023-03-17T02:17:30;30.98;;;28.02;;
2175;SDS011;1094;49.902;10.876;2023-03-17T02:19:56;30.13;;;27.25;;
2175;SDS011;1094;49.902;10.876;2023-03-17T02:22:21;29.33;;;26.70;;
2175;SDS011;1094;49.902;10.876;2023-03-17T02:24:52;30.27;;;27.50;;
2175;SDS011;1094;49.902;10.876;2023-03-17T02:27:23;28.52;;;26.42;;
2175;SDS011;1094;49.902;10.876;2023-03-17T02:29:51;28.65;;;26.52;;
2175;SDS011;1094;49.902;10.876;2023-03-17T02:32:17;28.50;;;26.20;;
2175;SDS011;1094;49.902;10.876;2023-03-17T02:34:44;28.58;;;26.27;;
2175;SDS011;1094;49.902;10.876;2023-03-17T02:37:10;30.13;;;27.60;;
2175;SDS011;1094;49.902;10.876;2023-03-17T02:39:37;28.08;;;25.77;;
2175;SDS011;1094;49.902;10.876;2023-03-17T02:42:03;28.50;;;26.10;;
2175;SDS011;1094;49.902;10.876;2023-03-17T02:44:30;28.40;;;26.25;;
2175;SDS011;1094;49.902;10.876;2023-03-17T02:46:56;28.67;;;26.17;;
2175;SDS011;1094;49.902;10.876;2023-03-17T02:49:22;28.00;;;25.80;;
2175;SDS011;1094;49.902;10.876;2023-03-17T02:51:49;27.20;;;25.23;;
2175;SDS011;1094;49.902;10.876;2023-03-17T02:54:15;26.95;;;24.90;;
2175;SDS011;1094;49.902;10.876;2023-03-17T02:56:41;28.27;;;26.17;;
2175;SDS011;1094;49.902;10.876;2023-03-17T02:59:07;28.80;;;26.40;;
2175;SDS011;1094;49.902;10.876;2023-03-17T03:01:33;26.77;;;24.98;;
2175;SDS011;1094;49.902;10.876;2023-03-17T03:03:59;28.60;;;26.42;;
2175;SDS011;1094;49.902;10.876;2023-03-17T03:06:26;27.55;;;25.23;;
2175;SDS011;1094;49.902;10.876;2023-03-17T03:08:52;27.07;;;24.97;;
2175;SDS011;1094;49.902;10.876;2023-03-17T03:11:18;30.10;;;27.75;;
2175;SDS011;1094;49.902;10.876;2023-03-17T03:13:44;27.30;;;25.27;;
2175;SDS011;1094;49.902;10.876;2023-03-17T03:16:10;27.63;;;25.65;;
2175;SDS011;1094;49.902;10.876;2023-03-17T03:18:36;29.50;;;27.40;;
2175;SDS011;1094;49.902;10.876;2023-03-17T03:21:03;27.88;;;25.50;;
2175;SDS011;1094;49.902;10.876;2023-03-17T03:23:29;27.48;;;25.35;;
2175;SDS011;1094;49.902;10.876;2023-03-17T03:25:55;29.90;;;27.10;;
2175;SDS011;1094;49.902;10.876;2023-03-17T03:28:22;27.05;;;25.05;;
2175;SDS011;1094;49.902;10.876;2023-03-17T03:30:48;27.27;;;25.17;;
2175;SDS011;1094;49.902;10.876;2023-03-17T03:33:15;26.77;;;24.85;;
2175;SDS011;1094;49.902;10.876;2023-03-17T03:35:41;28.00;;;25.95;;
2175;SDS011;1094;49.902;10.876;2023-03-17T03:38:08;28.02;;;25.73;;
2175;SDS011;1094;49.902;10.876;2023-03-17T03:40:34;26.60;;;24.55;;
2175;SDS011;1094;49.902;10.876;2023-03-17T03:43:00;26.30;;;24.33;;
2175;SDS011;1094;49.902;10.876;2023-03-17T03:45:27;26.40;;;24.65;;
2175;SDS011;1094;49.902;10.876;2023-03-17T03:47:53;26.73;;;24.70;;
2175;SDS011;1094;49.902;10.876;2023-03-17T03:50:19;26.83;;;25.02;;
2175;SDS011;1094;49.902;10.876;2023-03-17T03:52:45;26.23;;;24.33;;
2175;SDS011;1094;49.902;10.876;2023-03-17T03:55:11;27.33;;;25.33;;
2175;SDS011;1094;49.902;10.876;2023-03-17T03:57:37;26.27;;;24.58;;
2175;SDS011;1094;49.902;10.876;2023-03-17T04:00:04;27.20;;;25.10;;
2175;SDS011;1094;49.902;10.876;2023-03-17T04:02:31;25.27;;;23.63;;
2175;SDS011;1094;49.902;10.876;2023-03-17T04:04:57;27.80;;;25.40;;
2175;SDS011;1094;49.902;10.876;2023-03-17T04:07:23;26.40;;;24.50;;
2175;SDS011;1094;49.902;10.876;2023-03-17T04:09:49;26.38;;;24.42;;
2175;SDS011;1094;49.902;10.876;2023-03-17T04:12:15;26.47;;;24.40;;
2175;SDS011;1094;49.902;10.876;2023-03-17T04:14:41;28.00;;;25.48;;
2175;SDS011;1094;49.902;10.876;2023-03-17T04:17:08;29.20;;;26.00;;
2175;SDS011;1094;49.902;10.876;2023-03-17T04:19:34;26.98;;;24.98;;
2175;SDS011;1094;49.902;10.876;2023-03-17T04:22:01;27.42;;;24.95;;
2175;SDS011;1094;49.902;10.876;2023-03-17T04:24:27;27.58;;;25.40;;
2175;SDS011;1094;49.902;10.876;2023-03-17T04:26:53;27.60;;;25.50;;
2175;SDS011;1094;49.902;10.876;2023-03-17T04:29:19;26.37;;;24.47;;
2175;SDS011;1094;49.902;10.876;2023-03-17T04:31:45;27.37;;;25.27;;
2175;SDS011;1094;49.902;10.876;2023-03-17T04:34:15;26.67;;;24.88;;
2175;SDS011;1094;49.902;10.876;2023-03-17T04:36:42;26.90;;;24.85;;
2175;SDS011;1094;49.902;10.876;2023-03-17T04:39:08;25.80;;;23.90;;
2175;SDS011;1094;49.902;10.876;2023-03-17T04:41:34;24.77;;;23.23;;
2175;SDS011;1094;49.902;10.876;2023-03-17T04:44:00;27.88;;;25.92;;
2175;SDS011;1094;49.902;10.876;2023-03-17T04:46:26;25.70;;;24.00;;
2175;SDS011;1094;49.902;10.876;2023-03-17T04:48:52;26.17;;;24.17;;
2175;SDS011;1094;49.902;10.876;2023-03-17T04:51:18;25.07;;;23.37;;
2175;SDS011;1094;49.902;10.876;2023-03-17T04:53:54;25.20;;;23.50;;
2175;SDS011;1094;49.902;10.876;2023-03-17T04:56:20;25.60;;;23.70;;
2175;SDS011;1094;49.902;10.876;2023-03-17T04:58:46;24.50;;;22.70;;
2175;SDS011;1094;49.902;10.876;2023-03-17T05:01:12;26.00;;;24.10;;
2175;SDS011;1094;49.902;10.876;2023-03-17T05:03:38;24.15;;;22.52;;
2175;SDS011;1094;49.902;10.876;2023-03-17T05:06:04;25.30;;;23.23;;
2175;SDS011;1094;49.902;10.876;2023-03-17T05:08:31;25.42;;;23.73;;
2175;SDS011;1094;49.902;10.876;2023-03-17T05:10:57;24.30;;;22.77;;
2175;SDS011;1094;49.902;10.876;2023-03-17T05:13:23;24.57;;;22.97;;
2175;SDS011;1094;49.902;10.876;2023-03-17T05:15:50;25.10;;;23.33;;
2175;SDS011;1094;49.902;10.876;2023-03-17T05:18:17;25.55;;;23.75;;
2175;SDS011;1094;49.902;10.876;2023-03-17T05:20:43;24.42;;;22.73;;
2175;SDS011;1094;49.902;10.876;2023-03-17T05:23:09;25.77;;;23.70;;
2175;SDS011;1094;49.902;10.876;2023-03-17T05:25:36;25.10;;;23.50;;
2175;SDS011;1094;49.902;10.876;2023-03-17T05:28:02;26.10;;;24.30;;
2175;SDS011;1094;49.902;10.876;2023-03-17T05:30:28;25.27;;;23.50;;
2175;SDS011;1094;49.902;10.876;2023-03-17T05:32:54;26.10;;;24.20;;
2175;SDS011;1094;49.902;10.876;2023-03-17T05:35:20;25.40;;;23.50;;
2175;SDS011;1094;49.902;10.876;2023-03-17T05:37:46;26.10;;;23.98;;
2175;SDS011;1094;49.902;10.876;2023-03-17T05:40:12;25.17;;;23.20;;
2175;SDS011;1094;49.902;10.876;2023-03-17T05:42:39;24.70;;;22.85;;
2175;SDS011;1094;49.902;10.876;2023-03-17T05:45:08;25.10;;;23.10;;
2175;SDS011;1094;49.902;10.876;2023-03-17T05:47:34;25.48;;;23.67;;
2175;SDS011;1094;49.902;10.876;2023-03-17T05:50:00;25.00;;;23.40;;
2175;SDS011;1094;49.902;10.876;2023-03-17T05:52:26;25.75;;;23.95;;
2175;SDS011;1094;49.902;10.876;2023-03-17T05:54:52;26.63;;;24.52;;
2175;SDS011;1094;49.902;10.876;2023-03-17T05:57:18;27.25;;;24.80;;
2175;SDS011;1094;49.902;10.876;2023-03-17T05:59:44;26.67;;;24.70;;
2175;SDS011;1094;49.902;10.876;2023-03-17T06:02:11;24.25;;;22.58;;
2175;SDS011;1094;49.902;10.876;2023-03-17T06:04:37;27.02;;;25.00;;
2175;SDS011;1094;49.902;10.876;2023-03-17T06:07:03;26.90;;;24.90;;
2175;SDS011;1094;49.902;10.876;2023-03-17T06:09:30;26.08;;;24.08;;
2175;SDS011;1094;49.902;10.876;2023-03-17T06:11:56;25.90;;;23.95;;
2175;SDS011;1094;49.902;10.876;2023-03-17T06:14:22;26.53;;;24.17;;
2175;SDS011;1094;49.902;10.876;2023-03-17T06:16:48;25.50;;;23.65;;
2175;SDS011;1094;49.902;10.876;2023-03-17T06:19:14;25.75;;;23.88;;
2175;SDS011;1094;49.902;10.876;2023-03-17T06:21:40;25.60;;;23.50;;
2175;SDS011;1094;49.902;10.876;2023-03-17T06:24:07;25.98;;;24.17;;
2175;SDS011;1094;49.902;10.876;2023-03-17T06:26:33;25.35;;;23.13;;
2175;SDS011;1094;49.902;10.876;2023-03-17T06:29:01;25.88;;;23.90;;
2175;SDS011;1094;49.902;10.876;2023-03-17T06:31:27;26.00;;;23.70;;
2175;SDS011;1094;49.902;10.876;2023-03-17T06:33:53;25.57;;;23.60;;
2175;SDS011;1094;49.902;10.876;2023-03-17T06:36:19;28.03;;;25.20;;
2175;SDS011;1094;49.902;10.876;2023-03-17T06:38:45;28.50;;;25.87;;
2175;SDS011;1094;49.902;10.876;2023-03-17T06:41:11;30.60;;;26.80;;
2175;SDS011;1094;49.902;10.876;2023-03-17T06:43:37;28.63;;;25.60;;
2175;SDS011;1094;49.902;10.876;2023-03-17T06:46:03;28.80;;;25.97;;
2175;SDS011;1094;49.902;10.876;2023-03-17T06:48:31;42.90;;;30.23;;
2175;SDS011;1094;49.902;10.876;2023-03-17T06:50:57;36.00;;;30.07;;
2175;SDS011;1094;49.902;10.876;2023-03-17T06:53:23;36.50;;;30.13;;
2175;SDS011;1094;49.902;10.876;2023-03-17T06:55:50;28.40;;;25.40;;
2175;SDS011;1094;49.902;10.876;2023-03-17T06:58:16;27.90;;;25.77;;
2175;SDS011;1094;49.902;10.876;2023-03-17T07:00:42;24.40;;;22.73;;
2175;SDS011;1094;49.902;10.876;2023-03-17T07:03:09;22.47;;;20.70;;
2175;SDS011;1094;49.902;10.876;2023-03-17T07:05:35;23.80;;;22.20;;
2175;SDS011;1094;49.902;10.876;2023-03-17T07:08:03;22.00;;;20.70;;
2175;SDS011;1094;49.902;10.876;2023-03-17T07:10:29;22.70;;;21.07;;
2175;SDS011;1094;49.902;10.876;2023-03-17T07:12:55;22.47;;;21.17;;
2175;SDS011;1094;49.902;10.876;2023-03-17T07:15:21;22.30;;;20.90;;
2175;SDS011;1094;49.902;10.876;2023-03-17T07:17:47;22.33;;;20.83;;
2175;SDS011;1094;49.902;10.876;2023-03-17T07:20:13;23.73;;;21.83;;
2175;SDS011;1094;49.902;10.876;2023-03-17T07:22:39;23.33;;;21.10;;
2175;SDS011;1094;49.902;10.876;2023-03-17T07:25:06;24.93;;;23.13;;
2175;SDS011;1094;49.902;10.876;2023-03-17T07:27:33;26.73;;;24.23;;
2175;SDS011;1094;49.902;10.876;2023-03-17T07:29:59;30.60;;;27.50;;
2175;SDS011;1094;49.902;10.876;2023-03-17T07:32:28;25.33;;;23.53;;
2175;SDS011;1094;49.902;10.876;2023-03-17T07:34:54;24.43;;;22.43;;
2175;SDS011;1094;49.902;10.876;2023-03-17T07:37:21;22.93;;;21.33;;
2175;SDS011;1094;49.902;10.876;2023-03-17T07:39:47;24.57;;;22.60;;
2175;SDS011;1094;49.902;10.876;2023-03-17T07:42:13;23.83;;;21.90;;
2175;SDS011;1094;49.902;10.876;2023-03-17T07:44:41;22.40;;;20.90;;
2175;SDS011;1094;49.902;10.876;2023-03-17T07:47:07;22.97;;;21.57;;
2175;SDS011;1094;49.902;10.876;2023-03-17T07:49:33;23.93;;;22.30;;
2175;SDS011;1094;49.902;10.876;2023-03-17T07:51:59;23.10;;;21.60;;
2175;SDS011;1094;49.902;10.876;2023-03-17T07:54:25;23.30;;;21.63;;
2175;SDS011;1094;49.902;10.876;2023-03-17T07:56:52;23.43;;;21.83;;
2175;SDS011;1094;49.902;10.876;2023-03-17T07:59:18;22.10;;;20.50;;
2175;SDS011;1094;49.902;10.876;2023-03-17T08:01:45;20.50;;;19.40;;
2175;SDS011;1094;49.902;10.876;2023-03-17T08:04:11;20.73;;;19.63;;
2175;SDS011;1094;49.902;10.876;2023-03-17T08:06:37;20.50;;;19.33;;
2175;SDS011;1094;49.902;10.876;2023-03-17T08:09:06;20.60;;;19.40;;
2175;SDS011;1094;49.902;10.876;2023-03-17T08:11:32;22.30;;;20.50;;
2175;SDS011;1094;49.902;10.876;2023-03-17T08:13:58;21.43;;;20.20;;
2175;SDS011;1094;49.902;10.876;2023-03-17T08:16:26;21.97;;;20.57;;
2175;SDS011;1094;49.902;10.876;2023-03-17T08:18:52;22.27;;;20.87;;
2175;SDS011;1094;49.902;10.876;2023-03-17T08:21:18;20.50;;;19.30;;
2175;SDS011;1094;49.902;10.876;2023-03-17T08:23:44;21.43;;;20.10;;
2175;SDS011;1094;49.902;10.876;2023-03-17T08:26:11;21.27;;;19.87;;
2175;SDS011;1094;49.902;10.876;2023-03-17T08:28:38;21.80;;;20.20;;
2175;SDS011;1094;49.902;10.876;2023-03-17T08:31:05;21.63;;;20.23;;
2175;SDS011;1094;49.902;10.876;2023-03-17T08:33:32;21.97;;;20.10;;
2175;SDS011;1094;49.902;10.876;2023-03-17T08:35:58;21.57;;;19.93;;
2175;SDS011;1094;49.902;10.876;2023-03-17T08:38:24;22.23;;;20.70;;
2175;SDS011;1094;49.902;10.876;2023-03-17T08:40:50;21.67;;;20.27;;
2175;SDS011;1094;49.902;10.876;2023-03-17T08:43:16;20.70;;;19.30;;
2175;SDS011;1094;49.902;10.876;2023-03-17T08:45:42;20.57;;;19.20;;
2175;SDS011;1094;49.902;10.876;2023-03-17T08:48:08;19.50;;;18.27;;
2175;SDS011;1094;49.902;10.876;2023-03-17T08:50:34;20.43;;;19.27;;
2175;SDS011;1094;49.902;10.876;2023-03-17T08:53:00;20.00;;;18.87;;
2175;SDS011;1094;49.902;10.876;2023-03-17T08:55:26;19.67;;;18.60;;
2175;SDS011;1094;49.902;10.876;2023-03-17T08:57:52;20.17;;;19.00;;
2175;SDS011;1094;49.902;10.876;2023-03-17T09:00:18;19.63;;;18.53;;
2175;SDS011;1094;49.902;10.876;2023-03-17T09:02:45;19.83;;;18.73;;
2175;SDS011;1094;49.902;10.876;2023-03-17T09:05:12;20.23;;;18.80;;
2175;SDS011;1094;49.902;10.876;2023-03-17T09:07:38;20.20;;;19.10;;
2175;SDS011;1094;49.902;10.876;2023-03-17T09:10:05;19.90;;;18.80;;
2175;SDS011;1094;49.902;10.876;2023-03-17T09:12:31;20.50;;;19.30;;
2175;SDS011;1094;49.902;10.876;2023-03-17T09:14:57;20.50;;;19.30;;
2175;SDS011;1094;49.902;10.876;2023-03-17T09:17:24;20.70;;;19.50;;
2175;SDS011;1094;49.902;10.876;2023-03-17T09:19:50;20.43;;;19.33;;
2175;SDS011;1094;49.902;10.876;2023-03-17T09:22:16;20.03;;;18.93;;
2175;SDS011;1094;49.902;10.876;2023-03-17T09:24:45;20.20;;;19.00;;
2175;SDS011;1094;49.902;10.876;2023-03-17T09:27:11;20.10;;;18.80;;
2175;SDS011;1094;49.902;10.876;2023-03-17T09:29:38;19.83;;;18.80;;
2175;SDS011;1094;49.902;10.876;2023-03-17T09:32:04;19.70;;;18.60;;
2175;SDS011;1094;49.902;10.876;2023-03-17T09:34:30;19.80;;;18.70;;
2175;SDS011;1094;49.902;10.876;2023-03-17T09:36:56;20.30;;;18.83;;
2175;SDS011;1094;49.902;10.876;2023-03-17T09:39:23;19.00;;;17.90;;
2175;SDS011;1094;49.902;10.876;2023-03-17T09:41:57;19.73;;;18.43;;
2175;SDS011;1094;49.902;10.876;2023-03-17T09:49:51;19.17;;;17.80;;
2175;SDS011;1094;49.902;10.876;2023-03-17T09:52:24;19.07;;;18.00;;
2175;SDS011;1094;49.902;10.876;2023-03-17T09:54:51;19.30;;;18.20;;
2175;SDS011;1094;49.902;10.876;2023-03-17T09:57:33;18.97;;;17.87;;
2175;SDS011;1094;49.902;10.876;2023-03-17T10:00:00;19.33;;;17.93;;
2175;SDS011;1094;49.902;10.876;2023-03-17T10:02:31;19.53;;;18.23;;
2175;SDS011;1094;49.902;10.876;2023-03-17T10:04:57;18.43;;;17.43;;
2175;SDS011;1094;49.902;10.876;2023-03-17T10:07:34;18.87;;;17.77;;
2175;SDS011;1094;49.902;10.876;2023-03-17T10:10:04;19.37;;;17.93;;
2175;SDS011;1094;49.902;10.876;2023-03-17T10:12:45;19.50;;;18.30;;
2175;SDS011;1094;49.902;10.876;2023-03-17T10:15:20;19.67;;;18.47;;
2175;SDS011;1094;49.902;10.876;2023-03-17T10:17:48;19.77;;;18.37;;
2175;SDS011;1094;49.902;10.876;2023-03-17T10:20:17;19.50;;;18.20;;
2175;SDS011;1094;49.902;10.876;2023-03-17T10:22:56;19.13;;;18.03;;
2175;SDS011;1094;49.902;10.876;2023-03-17T10:25:24;18.93;;;17.70;;
2175;SDS011;1094;49.902;10.876;2023-03-17T10:27:51;18.20;;;17.30;;
2175;SDS011;1094;49.902;10.876;2023-03-17T10:30:20;18.33;;;17.43;;
2175;SDS011;1094;49.902;10.876;2023-03-17T10:32:47;18.70;;;17.60;;
2175;SDS011;1094;49.902;10.876;2023-03-17T10:35:14;18.33;;;17.13;;
2175;SDS011;1094;49.902;10.876;2023-03-17T10:37:41;18.50;;;17.50;;
2175;SDS011;1094;49.902;10.876;2023-03-17T10:40:17;18.53;;;17.43;;
2175;SDS011;1094;49.902;10.876;2023-03-17T10:42:50;19.40;;;18.20;;
2175;SDS011;1094;49.902;10.876;2023-03-17T10:45:21;18.97;;;18.00;;
2175;SDS011;1094;49.902;10.876;2023-03-17T10:47:50;19.63;;;18.37;;
2175;SDS011;1094;49.902;10.876;2023-03-17T10:52:51;18.73;;;17.73;;
2175;SDS011;1094;49.902;10.876;2023-03-17T10:55:18;18.87;;;17.70;;
2175;SDS011;1094;49.902;10.876;2023-03-17T10:57:51;18.63;;;17.53;;
2175;SDS011;1094;49.902;10.876;2023-03-17T11:00:18;18.43;;;17.40;;
2175;SDS011;1094;49.902;10.876;2023-03-17T11:02:47;18.07;;;17.17;;
2175;SDS011;1094;49.902;10.876;2023-03-17T11:05:18;18.93;;;17.83;;
2175;SDS011;1094;49.902;10.876;2023-03-17T11:07:45;18.73;;;17.73;;
2175;SDS011;1094;49.902;10.876;2023-03-17T11:10:19;19.07;;;18.07;;
2175;SDS011;1094;49.902;10.876;2023-03-17T11:12:46;18.63;;;17.63;;
2175;SDS011;1094;49.902;10.876;2023-03-17T11:15:14;18.20;;;17.30;;
2175;SDS011;1094;49.902;10.876;2023-03-17T11:17:43;18.67;;;17.57;;
2175;SDS011;1094;49.902;10.876;2023-03-17T11:22:45;18.40;;;17.30;;
2175;SDS011;1094;49.902;10.876;2023-03-17T11:25:17;18.60;;;17.70;;
2175;SDS011;1094;49.902;10.876;2023-03-17T11:30:24;19.70;;;18.50;;
2175;SDS011;1094;49.902;10.876;2023-03-17T11:35:32;19.70;;;18.60;;
2175;SDS011;1094;49.902;10.876;2023-03-17T11:46:14;19.80;;;18.60;;
2175;SDS011;1094;49.902;10.876;2023-03-17T11:54:07;19.40;;;18.20;;
2175;SDS011;1094;49.902;10.876;2023-03-17T11:59:17;18.80;;;17.90;;
2175;SDS011;1094;49.902;10.876;2023-03-17T12:01:47;19.10;;;17.97;;
2175;SDS011;1094;49.902;10.876;2023-03-17T12:06:51;18.00;;;17.10;;
2175;SDS011;1094;49.902;10.876;2023-03-17T12:11:50;18.50;;;17.37;;
2175;SDS011;1094;49.902;10.876;2023-03-17T12:16:49;18.20;;;17.20;;
2175;SDS011;1094;49.902;10.876;2023-03-17T12:19:18;18.23;;;17.33;;
2175;SDS011;1094;49.902;10.876;2023-03-17T12:22:07;18.70;;;17.43;;
2175;SDS011;1094;49.902;10.876;2023-03-17T12:24:39;17.97;;;17.10;;
2175;SDS011;1094;49.902;10.876;2023-03-17T12:37:17;18.83;;;17.73;;
2175;SDS011;1094;49.902;10.876;2023-03-17T12:40:00;18.00;;;17.10;;
2175;SDS011;1094;49.902;10.876;2023-03-17T12:50:01;18.90;;;17.60;;
2175;SDS011;1094;49.902;10.876;2023-03-17T12:55:01;19.40;;;18.40;;
2175;SDS011;1094;49.902;10.876;2023-03-17T12:57:38;19.40;;;18.40;;
2175;SDS011;1094;49.902;10.876;2023-03-17T13:00:15;19.80;;;18.70;;
2175;SDS011;1094;49.902;10.876;2023-03-17T13:02:41;19.40;;;18.40;;
2175;SDS011;1094;49.902;10.876;2023-03-17T13:05:13;19.40;;;18.20;;
2175;SDS011;1094;49.902;10.876;2023-03-17T13:07:50;19.67;;;18.67;;
2175;SDS011;1094;49.902;10.876;2023-03-17T13:10:37;19.90;;;18.50;;
2175;SDS011;1094;49.902;10.876;2023-03-17T13:13:11;19.27;;;18.20;;
2175;SDS011;1094;49.902;10.876;2023-03-17T13:23:32;19.83;;;18.53;;
2175;SDS011;1094;49.902;10.876;2023-03-17T13:26:06;19.73;;;18.43;;
2175;SDS011;1094;49.902;10.876;2023-03-17T13:33:50;19.30;;;18.30;;
2175;SDS011;1094;49.902;10.876;2023-03-17T13:38:59;19.30;;;18.17;;
2175;SDS011;1094;49.902;10.876;2023-03-17T13:41:33;19.80;;;18.60;;
2175;SDS011;1094;49.902;10.876;2023-03-17T13:49:14;19.43;;;18.23;;
2175;SDS011;1094;49.902;10.876;2023-03-17T13:51:40;19.37;;;18.37;;
2175;SDS011;1094;49.902;10.876;2023-03-17T13:54:08;19.03;;;18.03;;
2175;SDS011;1094;49.902;10.876;2023-03-17T13:59:18;19.00;;;17.90;;
2175;SDS011;1094;49.902;10.876;2023-03-17T14:01:59;19.30;;;18.27;;
2175;SDS011;1094;49.902;10.876;2023-03-17T14:04:35;19.60;;;18.13;;
2175;SDS011;1094;49.902;10.876;2023-03-17T14:07:05;19.23;;;18.23;;
2175;SDS011;1094;49.902;10.876;2023-03-17T14:09:35;19.03;;;18.03;;
2175;SDS011;1094;49.902;10.876;2023-03-17T14:12:16;19.70;;;18.23;;
2175;SDS011;1094;49.902;10.876;2023-03-17T14:17:15;19.23;;;18.13;;
2175;SDS011;1094;49.902;10.876;2023-03-17T14:19:57;18.73;;;17.73;;
2175;SDS011;1094;49.902;10.876;2023-03-17T14:22:24;19.00;;;18.00;;
2175;SDS011;1094;49.902;10.876;2023-03-17T14:24:51;18.90;;;17.90;;
2175;SDS011;1094;49.902;10.876;2023-03-17T14:27:17;18.87;;;17.90;;
2175;SDS011;1094;49.902;10.876;2023-03-17T14:29:43;18.50;;;17.40;;
2175;SDS011;1094;49.902;10.876;2023-03-17T14:32:12;19.33;;;18.03;;
2175;SDS011;1094;49.902;10.876;2023-03-17T14:34:42;18.80;;;17.50;;
2175;SDS011;1094;49.902;10.876;2023-03-17T14:37:08;19.47;;;18.37;;
2175;SDS011;1094;49.902;10.876;2023-03-17T14:39:38;18.83;;;17.70;;
2175;SDS011;1094;49.902;10.876;2023-03-17T14:42:08;18.93;;;18.03;;
2175;SDS011;1094;49.902;10.876;2023-03-17T14:44:44;19.30;;;18.30;;
2175;SDS011;1094;49.902;10.876;2023-03-17T14:47:17;18.50;;;17.57;;
2175;SDS011;1094;49.902;10.876;2023-03-17T14:49:44;19.53;;;18.53;;
2175;SDS011;1094;49.902;10.876;2023-03-17T14:52:17;19.67;;;18.67;;
2175;SDS011;1094;49.902;10.876;2023-03-17T14:54:44;19.50;;;18.40;;
2175;SDS011;1094;49.902;10.876;2023-03-17T14:57:13;19.67;;;18.57;;
2175;SDS011;1094;49.902;10.876;2023-03-17T14:59:40;18.70;;;17.77;;
2175;SDS011;1094;49.902;10.876;2023-03-17T15:02:15;18.97;;;18.00;;
2175;SDS011;1094;49.902;10.876;2023-03-17T15:04:48;19.40;;;18.00;;
2175;SDS011;1094;49.902;10.876;2023-03-17T15:07:26;19.77;;;18.63;;
2175;SDS011;1094;49.902;10.876;2023-03-17T15:09:56;20.13;;;18.77;;
2175;SDS011;1094;49.902;10.876;2023-03-17T15:12:23;18.80;;;17.70;;
2175;SDS011;1094;49.902;10.876;2023-03-17T15:14:52;19.27;;;18.27;;
2175;SDS011;1094;49.902;10.876;2023-03-17T15:17:20;19.00;;;17.90;;
2175;SDS011;1094;49.902;10.876;2023-03-17T15:19:47;19.07;;;17.97;;
2175;SDS011;1094;49.902;10.876;2023-03-17T15:22:30;19.13;;;18.03;;
2175;SDS011;1094;49.902;10.876;2023-03-17T15:27:23;19.50;;;18.40;;
2175;SDS011;1094;49.902;10.876;2023-03-17T15:29:49;19.13;;;18.00;;
2175;SDS011;1094;49.902;10.876;2023-03-17T15:32:16;19.40;;;18.27;;
2175;SDS011;1094;49.902;10.876;2023-03-17T15:34:44;19.00;;;18.10;;
2175;SDS011;1094;49.902;10.876;2023-03-17T15:37:17;19.20;;;18.10;;
2175;SDS011;1094;49.902;10.876;2023-03-17T15:39:43;19.03;;;17.90;;
2175;SDS011;1094;49.902;10.876;2023-03-17T15:42:09;19.10;;;17.90;;
2175;SDS011;1094;49.902;10.876;2023-03-17T15:44:35;19.40;;;18.20;;
2175;SDS011;1094;49.902;10.876;2023-03-17T15:47:01;19.13;;;18.13;;
2175;SDS011;1094;49.902;10.876;2023-03-17T15:49:28;19.40;;;18.30;;
2175;SDS011;1094;49.902;10.876;2023-03-17T15:51:54;18.90;;;17.80;;
2175;SDS011;1094;49.902;10.876;2023-03-17T15:54:20;19.57;;;18.47;;
2175;SDS011;1094;49.902;10.876;2023-03-17T15:56:46;19.60;;;18.13;;
2175;SDS011;1094;49.902;10.876;2023-03-17T15:59:12;18.80;;;17.80;;
2175;SDS011;1094;49.902;10.876;2023-03-17T16:01:38;19.40;;;18.40;;
2175;SDS011;1094;49.902;10.876;2023-03-17T16:04:04;19.83;;;18.83;;
2175;SDS011;1094;49.902;10.876;2023-03-17T16:06:31;20.03;;;18.93;;